Time;durP1;ratioP1;P1;durP2;ratioP2;P2;SDS_P1;SDS_P2;PMS_P1;PMS_P2;Temp;Humidity;BMP_temperature;BMP_pressure;BME280_temperature;BME280_humidity;BME280_pressure;Samples;Min_cycle;Max_cycle;Signal;HPM_P1;HPM_P2
2022/05/16 00:01:59;;;;;;;11.93;10.70;;;;;;;18.07;77.76;97435.97;5088966;28;20203;-86
2022/05/16 00:04:55;;;;;;;14.23;11.93;;;;;;;17.59;78.90;97397.41;5080746;28;20206;-88
2022/05/16 00:07:42;;;;;;;11.60;10.40;;;;;;;17.48;79.58;97403.34;5083174;28;20190;-87
2022/05/16 00:10:25;;;;;;;12.03;10.83;;;;;;;17.79;78.81;97416.06;5098905;28;20747;-89
2022/05/16 00:13:07;;;;;;;12.90;11.50;;;;;;;17.84;78.69;97421.84;5092092;28;20203;-87
2022/05/16 00:15:38;;;;;;;13.17;11.20;;;;;;;17.61;78.96;97406.00;5085514;28;20229;-90
2022/05/16 00:18:32;;;;;;;13.37;10.90;;;;;;;17.13;80.03;97370.81;5089996;28;20193;-88
2022/05/16 00:21:07;;;;;;;13.50;11.03;;;;;;;17.19;80.77;97409.66;5091139;28;20791;-88
2022/05/16 00:23:40;;;;;;;13.17;10.93;;;;;;;17.11;81.07;97406.72;5091107;28;20683;-87
2022/05/16 00:26:16;;;;;;;12.80;11.37;;;;;;;16.66;80.52;97329.47;5098190;28;20246;-87
2022/05/16 00:28:45;;;;;;;14.20;11.43;;;;;;;17.12;80.75;97423.28;5103675;27;20189;-87
2022/05/16 00:31:17;;;;;;;12.37;11.07;;;;;;;17.09;80.54;97424.31;5094023;28;20217;-88
2022/05/16 00:33:54;;;;;;;12.70;10.67;;;;;;;17.16;80.38;97420.34;5125672;27;20223;-86
2022/05/16 00:36:47;;;;;;;12.20;10.80;;;;;;;17.10;79.41;97405.88;5079666;28;20193;-86
2022/05/16 00:39:35;;;;;;;11.80;10.37;;;;;;;16.83;79.83;97406.84;5087651;28;20581;-87
2022/05/16 00:42:12;;;;;;;10.90;9.80;;;;;;;16.77;80.08;97408.09;5063587;28;20210;-90
2022/05/16 00:44:46;;;;;;;11.60;10.37;;;;;;;16.86;79.64;97422.34;5095039;28;20215;-87
2022/05/16 00:47:14;;;;;;;11.47;10.27;;;;;;;17.07;78.74;97427.03;5095908;28;20189;-88
2022/05/16 00:49:53;;;;;;;12.10;9.73;;;;;;;17.07;78.67;97418.34;5078739;28;20195;-89
2022/05/16 00:52:32;;;;;;;11.13;9.70;;;;;;;17.11;77.62;97396.25;5113016;28;20200;-87
2022/05/16 00:55:16;;;;;;;11.23;8.50;;;;;;;16.99;77.90;97391.81;5112148;28;20216;-89
2022/05/16 00:57:55;;;;;;;12.57;10.07;;;;;;;17.15;77.47;97408.19;5080863;28;20260;-88
2022/05/16 01:00:28;;;;;;;13.93;10.67;;;;;;;17.15;77.76;97408.19;5117185;28;20188;-87
2022/05/16 01:06:37;;;;;;;13.33;10.63;;;;;;;17.19;77.40;97409.66;5114532;28;20188;-88
2022/05/16 01:09:26;;;;;;;13.20;10.33;;;;;;;17.26;77.16;97426.66;5097386;28;20194;-88
2022/05/16 01:12:04;;;;;;;12.43;10.70;;;;;;;16.98;77.43;97379.69;5102393;28;20201;-88
2022/05/16 01:14:58;;;;;;;12.40;10.30;;;;;;;17.26;78.10;97416.19;5099989;28;20273;-88
2022/05/16 01:17:25;;;;;;;11.23;10.00;;;;;;;17.03;77.44;97395.91;5130012;27;20265;-89
2022/05/16 01:19:53;;;;;;;11.47;10.27;;;;;;;16.73;78.14;97359.50;5136423;27;20244;-91
2022/05/16 01:22:34;;;;;;;11.27;10.07;;;;;;;16.98;78.18;97417.16;5119126;28;20181;-86
2022/05/16 01:25:30;;;;;;;11.80;10.20;;;;;;;16.90;78.01;97390.66;5131441;28;20235;-86
2022/05/16 01:28:05;;;;;;;14.60;11.23;;;;;;;16.44;79.87;97409.38;5116470;28;20221;-89
2022/05/16 01:30:50;;;;;;;13.77;11.13;;;;;;;16.23;80.97;97394.09;5127987;28;20204;-89
2022/05/16 01:33:25;;;;;;;12.90;10.33;;;;;;;16.17;81.07;97391.88;5116935;28;20313;-87
2022/05/16 01:35:55;;;;;;;16.07;12.20;;;;;;;16.07;81.77;97401.19;5122134;28;20230;-85
2022/05/16 01:38:31;;;;;;;14.17;11.07;;;;;;;16.10;81.74;97402.78;5103224;28;20195;-86
2022/05/16 01:41:11;;;;;;;14.60;11.70;;;;;;;15.99;82.46;97408.66;5099981;28;20192;-87
2022/05/16 01:43:48;;;;;;;13.87;10.93;;;;;;;15.86;82.89;97412.97;5094584;28;20188;-87
2022/05/16 01:46:26;;;;;;;12.80;10.90;;;;;;;15.81;82.75;97390.66;5116226;28;20189;-87
2022/05/16 01:48:54;;;;;;;17.70;11.23;;;;;;;15.77;82.36;97371.75;5114326;28;20196;-86
2022/05/16 01:51:23;;;;;;;12.50;11.07;;;;;;;15.90;82.43;97411.84;5116077;28;20192;-87
2022/05/16 01:53:51;;;;;;;12.87;11.53;;;;;;;15.71;82.26;97368.66;5095433;28;20200;-90
2022/05/16 01:56:18;;;;;;;12.83;11.40;;;;;;;15.88;82.29;97412.88;5111430;28;20230;-87
2022/05/16 01:58:48;;;;;;;13.50;11.27;;;;;;;15.67;83.03;97416.78;5116441;28;20204;-85
2022/05/16 02:01:16;;;;;;;13.87;11.37;;;;;;;15.77;82.26;97395.25;5099540;28;20199;-85
2022/05/16 02:03:47;;;;;;;13.27;10.90;;;;;;;15.83;81.54;97386.19;5117537;28;20575;-87
2022/05/16 02:06:16;;;;;;;13.73;11.07;;;;;;;15.75;81.37;97378.81;5097881;28;20534;-87
2022/05/16 02:08:43;;;;;;;13.20;11.80;;;;;;;15.59;81.94;97383.31;5116729;28;20181;-89
2022/05/16 02:11:10;;;;;;;14.00;11.20;;;;;;;15.73;81.38;97385.91;5102186;28;20289;-87
2022/05/16 02:13:40;;;;;;;12.47;11.17;;;;;;;16.04;80.29;97418.84;5119315;28;20242;-91
2022/05/16 02:16:08;;;;;;;12.90;10.90;;;;;;;15.95;80.34;97396.72;5077176;28;20710;-89
2022/05/16 02:18:37;;;;;;;12.97;10.70;;;;;;;16.04;79.94;97419.69;5112191;28;20223;-91
2022/05/16 02:26:46;;;;;;;13.57;11.23;;;;;;;15.36;80.57;97355.09;5112940;28;20245;-95
2022/05/16 02:29:16;;;;;;;11.97;10.30;;;;;;;15.60;80.96;97400.63;5113728;28;20256;-96
2022/05/16 02:31:43;;;;;;;13.63;11.97;;;;;;;15.00;82.14;97362.47;5121857;28;20206;-88
2022/05/16 02:34:10;;;;;;;14.67;11.83;;;;;;;15.02;83.16;97397.97;5101364;28;20563;-87
2022/05/16 02:36:39;;;;;;;15.83;12.37;;;;;;;15.15;82.90;97414.59;5096000;28;20238;-92
2022/05/16 02:39:07;;;;;;;17.13;12.33;;;;;;;14.90;83.69;97406.50;5112857;28;20969;-94
2022/05/16 02:41:34;;;;;;;14.13;12.53;;;;;;;14.78;84.35;97404.59;5114062;28;20254;-88
2022/05/16 02:44:02;;;;;;;17.30;13.10;;;;;;;14.87;84.59;97418.88;5115083;28;20192;-86
2022/05/16 02:46:29;;;;;;;19.30;14.50;;;;;;;14.73;84.65;97398.81;5099800;28;20183;-89
2022/05/16 02:48:58;;;;;;;18.97;14.63;;;;;;;14.72;85.26;97419.72;5114419;28;20256;-92
2022/05/16 02:51:25;;;;;;;16.43;13.90;;;;;;;14.64;85.56;97420.16;5094543;28;20218;-85
2022/05/16 02:53:52;;;;;;;17.43;12.73;;;;;;;14.10;85.70;97308.53;5114406;28;20262;-88
2022/05/16 02:56:19;;;;;;;16.17;13.10;;;;;;;14.58;86.01;97403.13;5116992;28;20302;-84
2022/05/16 02:58:48;;;;;;;19.90;13.63;;;;;;;14.63;86.02;97411.50;5111567;28;20192;-90
2022/05/16 03:01:16;;;;;;;18.07;13.07;;;;;;;14.50;86.24;97399.25;5082707;28;20201;-87
2022/05/16 03:03:43;;;;;;;15.50;12.87;;;;;;;14.43;86.36;97405.72;5114397;28;20245;-87
2022/05/16 03:06:12;;;;;;;19.53;12.87;;;;;;;14.68;86.70;97425.13;5094339;28;20282;-89
2022/05/16 03:08:40;;;;;;;16.07;12.53;;;;;;;14.70;85.38;97378.09;5112961;28;20180;-87
2022/05/16 03:11:08;;;;;;;15.17;12.53;;;;;;;15.10;83.71;97400.16;5117915;28;20225;-87
2022/05/16 03:13:35;;;;;;;15.07;12.10;;;;;;;15.44;82.68;97412.91;5121316;28;20206;-86
2022/05/16 03:16:03;;;;;;;14.50;12.10;;;;;;;15.71;81.76;97424.34;5117848;28;20707;-84
2022/05/16 03:18:32;;;;;;;15.10;11.27;;;;;;;15.92;80.47;97428.28;5115911;28;20227;-85
2022/05/16 03:20:59;;;;;;;14.10;11.23;;;;;;;15.84;79.96;97417.47;5104451;28;20175;-86
2022/05/16 03:23:27;;;;;;;12.70;10.80;;;;;;;15.79;79.26;97396.00;5135906;27;20181;-89
2022/05/16 03:25:54;;;;;;;14.87;11.47;;;;;;;16.03;78.20;97417.19;5137815;27;20180;-90
2022/05/16 03:28:23;;;;;;;12.90;11.43;;;;;;;15.76;78.45;97416.22;5118185;28;20184;-89
2022/05/16 03:30:50;;;;;;;16.43;11.70;;;;;;;15.56;79.95;97438.28;5102714;28;20195;-85
2022/05/16 03:33:17;;;;;;;15.90;12.17;;;;;;;15.48;80.35;97429.25;5135284;27;20180;-87
2022/05/16 03:35:44;;;;;;;16.03;12.93;;;;;;;15.63;79.94;97444.84;5117763;28;20227;-85
2022/05/16 03:40:42;;;;;;;17.97;12.47;;;;;;;15.49;79.40;97426.56;5095507;28;20189;-87
2022/05/16 03:41:08;;;;;;;14.33;11.43;;;;;;;15.71;79.35;97445.22;5081182;28;20196;-86
2022/05/16 03:43:37;;;;;;;13.03;11.63;;;;;;;15.89;78.93;97449.34;5080675;28;20197;-86
2022/05/16 03:46:05;;;;;;;15.50;11.27;;;;;;;16.17;76.98;97404.94;5095293;28;20197;-86
2022/05/16 03:48:34;;;;;;;14.00;11.43;;;;;;;16.38;76.13;97436.75;5093768;28;20242;-86
2022/05/16 03:51:05;;;;;;;13.37;10.27;;;;;;;16.33;77.03;97451.00;5059390;28;20204;-87
2022/05/16 03:53:32;;;;;;;12.47;9.97;;;;;;;16.37;75.95;97406.28;5088895;28;20664;-85
2022/05/16 03:56:02;;;;;;;13.77;10.97;;;;;;;16.64;75.21;97441.19;5091077;28;20235;-88
2022/05/16 03:58:41;;;;;;;13.97;11.33;;;;;;;16.52;75.83;97454.19;5089589;28;20188;-86
2022/05/16 04:01:09;;;;;;;13.40;12.00;;;;;;;16.21;77.29;97450.00;5098269;28;20193;-85
2022/05/16 04:03:38;;;;;;;16.33;11.60;;;;;;;16.24;77.86;97453.25;5080150;28;20247;-89
2022/05/16 04:06:08;;;;;;;12.87;10.87;;;;;;;16.22;76.37;97405.47;5072034;28;20212;-85
2022/05/16 04:08:35;;;;;;;13.10;10.63;;;;;;;16.69;75.48;97459.22;5089455;28;20219;-85
2022/05/16 04:11:04;;;;;;;12.87;10.93;;;;;;;16.67;74.57;97446.22;5088323;28;20185;-85
2022/05/16 04:13:33;;;;;;;12.90;10.87;;;;;;;16.72;74.29;97456.38;5090702;28;20188;-88
2022/05/16 04:16:03;;;;;;;16.23;13.50;;;;;;;16.79;73.76;97424.53;5072696;28;20216;-86
2022/05/16 04:18:32;;;;;;;14.13;11.43;;;;;;;17.15;73.21;97467.53;5071543;28;20193;-86
2022/05/16 04:21:00;;;;;;;13.37;10.50;;;;;;;17.20;73.47;97455.84;5070569;28;20290;-87
2022/05/16 04:23:27;;;;;;;13.53;10.93;;;;;;;17.62;71.45;97455.66;5088994;28;20192;-87
2022/05/16 04:25:57;;;;;;;11.90;10.70;;;;;;;17.42;71.96;97447.41;5069322;28;20222;-84
2022/05/16 04:28:25;;;;;;;14.03;10.50;;;;;;;17.59;71.82;97455.88;5089035;28;20869;-85
2022/05/16 04:30:52;;;;;;;12.40;10.30;;;;;;;17.79;70.51;97444.88;5087983;28;20205;-86
2022/05/16 04:33:21;;;;;;;15.30;10.50;;;;;;;18.22;70.21;97476.84;5089360;28;20255;-87
2022/05/16 04:35:52;;;;;;;13.30;9.97;;;;;;;17.99;70.92;97464.47;5093977;28;20234;-85
2022/05/16 04:38:57;;;;;;;13.50;10.33;;;;;;;18.41;70.30;97476.41;5101715;28;20258;-85
2022/05/16 04:44:50;;;;;;;19.07;9.87;;;;;;;18.85;67.95;97419.00;5093171;28;20194;-89
2022/05/16 04:47:19;;;;;;;10.83;9.70;;;;;;;19.34;67.32;97480.16;5092180;28;20183;-87
2022/05/16 04:49:53;;;;;;;10.00;8.93;;;;;;;19.42;67.31;97467.28;5092392;28;20187;-85
2022/05/16 04:52:23;;;;;;;15.87;10.43;;;;;;;19.59;67.09;97486.19;5093079;28;20188;-87
2022/05/16 04:54:51;;;;;;;11.13;9.60;;;;;;;19.59;66.03;97491.47;5072239;28;20197;-85
2022/05/16 04:57:21;;;;;;;10.60;9.40;;;;;;;19.66;65.58;97482.19;5090615;28;20199;-87
2022/05/16 04:59:53;;;;;;;12.43;10.07;;;;;;;19.97;64.57;97490.25;5074402;28;20185;-84
2022/05/16 05:02:20;;;;;;;11.00;9.70;;;;;;;19.95;63.94;97457.97;5073754;28;20716;-87
2022/05/16 05:04:48;;;;;;;12.17;9.10;;;;;;;20.03;63.03;97441.63;5078322;28;20192;-91
2022/05/16 05:07:18;;;;;;;19.97;11.20;;;;;;;20.03;63.04;97452.16;5092830;28;20189;-86
2022/05/16 05:15:23;;;;;;;15.50;9.53;;;;;;;20.02;64.22;97469.69;5070014;28;20228;-86
2022/05/16 05:17:50;;;;;;;11.17;9.50;;;;;;;20.41;63.00;97473.69;5089685;28;20196;-89
2022/05/16 05:20:19;;;;;;;10.83;9.60;;;;;;;20.40;63.11;97472.03;5089859;28;20187;-87
2022/05/16 05:22:48;;;;;;;13.63;9.33;;;;;;;20.63;62.73;97481.56;5115127;27;20338;-86
2022/05/16 05:25:18;;;;;;;16.77;9.20;;;;;;;20.77;62.56;97480.50;5120578;27;20216;-87
2022/05/16 05:27:51;;;;;;;11.23;9.03;;;;;;;20.82;62.26;97457.25;5080835;28;20201;-90
2022/05/16 05:30:24;;;;;;;11.10;8.97;;;;;;;20.75;60.72;97404.25;5121036;28;20219;-87
2022/05/16 05:32:57;;;;;;;11.80;9.50;;;;;;;21.37;60.84;97469.47;5117031;28;20211;-87
2022/05/16 05:35:26;;;;;;;11.13;8.87;;;;;;;21.36;60.87;97467.78;5119687;28;20225;-87
2022/05/16 05:37:55;;;;;;;10.40;8.90;;;;;;;21.62;60.00;97484.91;5105237;28;20206;-88
2022/05/16 05:40:25;;;;;;;10.00;9.00;;;;;;;21.40;60.17;97485.03;5072311;28;20228;-92
2022/05/16 05:42:53;;;;;;;19.13;9.70;;;;;;;21.65;59.99;97495.22;5102744;28;20220;-91
2022/05/16 05:45:23;;;;;;;11.60;8.67;;;;;;;21.84;59.49;97492.78;5072666;28;20195;-92
2022/05/16 05:47:51;;;;;;;13.73;8.53;;;;;;;21.82;60.17;97460.41;5091977;28;20695;-94
2022/05/16 05:50:24;;;;;;;15.10;9.70;;;;;;;22.09;58.75;97494.19;5112043;28;20687;-88
2022/05/16 05:53:24;;;;;;;13.10;9.23;;;;;;;21.92;59.28;97466.59;5079674;28;20198;-87
2022/05/16 05:56:00;;;;;;;11.80;8.27;;;;;;;22.15;59.46;97491.88;5107276;28;20225;-93
2022/05/16 05:59:20;;;;;;;10.83;9.03;;;;;;;22.43;57.88;97492.97;5117654;28;20183;-87
2022/05/16 06:01:57;;;;;;;15.63;10.33;;;;;;;22.31;57.76;97475.53;5113015;28;20213;-95
2022/05/16 06:04:24;;;;;;;9.53;8.50;;;;;;;22.19;57.81;97489.78;5099849;28;20198;-94
2022/05/16 06:06:52;;;;;;;9.37;7.90;;;;;;;22.08;58.94;97485.41;5084916;28;20195;-94
2022/05/16 06:09:20;;;;;;;13.47;8.10;;;;;;;22.18;57.59;97481.03;5083327;28;20214;-93
2022/05/16 06:11:51;;;;;;;13.23;8.33;;;;;;;22.33;58.33;97476.25;5112211;28;20199;-89
2022/05/16 06:14:23;;;;;;;11.07;7.63;;;;;;;22.28;57.24;97458.16;5116926;28;20188;-92
2022/05/16 06:16:51;;;;;;;10.20;7.13;;;;;;;22.17;58.68;97470.63;5100007;28;20211;-85
2022/05/16 06:19:22;;;;;;;8.37;7.23;;;;;;;22.08;59.32;97498.59;5073860;28;20222;-87
2022/05/16 06:21:49;;;;;;;13.20;8.30;;;;;;;21.94;60.15;97474.34;5101623;28;20265;-91
2022/05/16 06:27:18;;;;;;;10.60;8.17;;;;;;;22.32;59.06;97498.31;5090776;28;20179;-88
2022/05/16 06:29:47;;;;;;;16.83;9.37;;;;;;;22.02;60.81;97493.84;5084330;28;20190;-88
2022/05/16 06:32:17;;;;;;;9.67;8.53;;;;;;;21.99;60.09;97457.16;5079361;28;20233;-95
2022/05/16 06:34:45;;;;;;;10.47;8.10;;;;;;;22.21;60.14;97480.78;5078881;28;20201;-87
2022/05/16 06:37:12;;;;;;;11.07;9.83;;;;;;;22.24;60.02;97493.69;5061242;28;20669;-95
2022/05/16 06:39:40;;;;;;;14.93;10.33;;;;;;;22.58;58.85;97487.25;5077687;28;20577;-89
2022/05/16 06:42:09;;;;;;;12.70;8.63;;;;;;;22.86;58.34;97480.38;5081026;28;20186;-91
2022/05/16 06:44:37;;;;;;;10.70;9.60;;;;;;;23.27;56.49;97489.91;5075970;28;20282;-91
2022/05/16 06:47:05;;;;;;;14.30;9.57;;;;;;;23.44;56.04;97489.25;5082039;28;20198;-89
2022/05/16 06:49:35;;;;;;;12.77;8.53;;;;;;;23.31;55.49;97459.56;5081175;28;20253;-89
2022/05/16 06:52:03;;;;;;;14.13;8.07;;;;;;;23.73;55.27;97489.25;5075159;28;20189;-90
2022/05/16 06:54:38;;;;;;;10.13;8.57;;;;;;;23.60;53.99;97471.03;5070548;28;20273;-89
2022/05/16 06:57:08;;;;;;;9.40;8.37;;;;;;;23.84;55.29;97476.72;5072810;28;20226;-89
2022/05/16 06:59:36;;;;;;;11.73;8.13;;;;;;;23.84;53.80;97482.03;5093373;28;20238;-86
2022/05/16 07:02:06;;;;;;;11.87;8.40;;;;;;;23.94;52.91;97487.28;5079037;28;20335;-95
2022/05/16 07:04:39;;;;;;;8.67;7.57;;;;;;;23.68;52.86;97444.69;5078771;28;20574;-93
2022/05/16 07:07:10;;;;;;;10.17;7.30;;;;;;;23.82;52.39;97459.31;5065694;28;20205;-87
2022/05/16 07:09:40;;;;;;;9.27;8.00;;;;;;;24.02;52.64;97480.31;5081300;28;20366;-91
2022/05/16 07:12:09;;;;;;;9.67;8.50;;;;;;;24.06;53.06;97483.53;5077949;28;20210;-93
2022/05/16 07:14:38;;;;;;;10.13;9.10;;;;;;;23.94;53.35;97464.31;5077747;28;20201;-92
2022/05/16 07:17:06;;;;;;;9.10;7.80;;;;;;;24.08;51.95;97471.84;5078838;28;20224;-92
2022/05/16 07:19:35;;;;;;;11.93;7.97;;;;;;;24.14;51.77;97443.94;5085345;28;20218;-90
2022/05/16 07:22:25;;;;;;;10.40;8.37;;;;;;;24.08;51.90;97439.22;5088496;28;20182;-86
2022/05/16 07:24:56;;;;;;;8.80;7.90;;;;;;;24.05;51.97;97460.72;5076545;28;20233;-87
2022/05/16 07:30:36;;;;;;;8.40;7.60;;;;;;;23.67;53.47;97477.44;5077052;28;20205;-84
2022/05/16 07:33:07;;;;;;;8.70;7.90;;;;;;;23.48;51.96;97402.56;5078681;28;20276;-87
2022/05/16 07:35:36;;;;;;;8.77;7.37;;;;;;;24.13;52.17;97471.41;5096813;28;20310;-86
2022/05/16 07:38:10;;;;;;;11.17;8.00;;;;;;;23.86;52.35;97398.06;5084587;28;20198;-88
2022/05/16 07:40:43;;;;;;;17.63;9.40;;;;;;;24.30;50.92;97433.56;5079515;28;20192;-96
2022/05/16 07:43:17;;;;;;;20.37;9.30;;;;;;;24.82;50.75;97466.56;5075231;28;20195;-92
2022/05/16 07:45:51;;;;;;;12.73;9.17;;;;;;;24.93;47.98;97469.00;5081582;28;20207;-90
2022/05/16 07:48:23;;;;;;;7.80;7.03;;;;;;;24.39;49.25;97416.00;5085890;28;20205;-90
2022/05/16 07:50:53;;;;;;;8.60;7.73;;;;;;;24.11;50.93;97434.47;5077196;28;20204;-94
2022/05/16 07:53:25;;;;;;;9.37;7.33;;;;;;;24.56;50.43;97461.09;5073436;28;20188;-88
2022/05/16 07:55:54;;;;;;;10.00;6.77;;;;;;;24.63;48.42;97458.66;5075378;28;20219;-88
2022/05/16 07:58:26;;;;;;;12.53;7.83;;;;;;;24.76;49.04;97408.88;5074678;28;20197;-94
2022/05/16 08:00:55;;;;;;;8.00;6.40;;;;;;;25.06;47.47;97419.09;5087304;28;20193;-91
2022/05/16 08:03:26;;;;;;;6.50;5.90;;;;;;;24.84;46.41;97395.69;5076347;28;20200;-96
2022/05/16 08:05:57;;;;;;;7.03;6.30;;;;;;;25.16;46.47;97433.16;5053912;28;20292;-91
2022/05/16 08:11:14;;;;;;;9.97;6.47;;;;;;;25.09;45.51;97394.13;5072652;28;20240;-93
2022/05/16 08:13:45;;;;;;;9.87;6.80;;;;;;;25.40;46.13;97419.28;5061053;28;20196;-92
2022/05/16 08:16:15;;;;;;;7.37;6.37;;;;;;;25.39;45.70;97429.03;5074395;28;20707;-92
2022/05/16 08:18:50;;;;;;;9.07;6.23;;;;;;;25.62;43.45;97456.81;5076603;28;20262;-94
2022/05/16 08:21:30;;;;;;;5.20;4.40;;;;;;;25.66;41.48;97436.09;5088640;28;20692;-89
2022/05/16 08:24:09;;;;;;;6.57;5.20;;;;;;;25.54;43.13;97448.78;5089477;28;20226;-92
2022/05/16 08:26:54;;;;;;;6.67;6.03;;;;;;;25.63;42.45;97420.50;5077832;28;20185;-90
2022/05/16 08:29:27;;;;;;;7.27;6.03;;;;;;;26.02;41.00;97458.13;5076475;28;20705;-93
2022/05/16 08:31:59;;;;;;;7.03;5.17;;;;;;;25.98;41.42;97456.75;5098800;28;20228;-93
2022/05/16 08:34:38;;;;;;;11.07;6.37;;;;;;;26.03;40.88;97449.19;5094401;28;20268;-86
2022/05/16 08:39:52;;;;;;;5.60;4.17;;;;;;;26.26;39.52;97455.63;5102177;28;20188;-86
2022/05/16 08:46:16;;;;;;;6.57;5.00;;;;;;;25.94;40.64;97432.34;5105586;28;20188;-93
2022/05/16 08:48:57;;;;;;;8.13;5.03;;;;;;;26.11;39.86;97446.59;5103301;28;20200;-89
2022/05/16 08:51:31;;;;;;;4.07;3.67;;;;;;;26.02;38.92;97442.19;5105943;28;20184;-89
2022/05/16 08:54:10;;;;;;;5.87;4.40;;;;;;;25.62;38.46;97356.00;5107454;28;20735;-93
2022/05/16 08:57:26;;;;;;;7.87;4.37;;;;;;;26.40;38.17;97416.03;5097152;28;20221;-87
2022/05/16 09:00:15;;;;;;;5.77;4.20;;;;;;;26.77;38.20;97426.34;5065733;28;20184;-88
2022/05/16 09:02:53;;;;;;;5.83;4.33;;;;;;;26.79;36.49;97415.56;5085687;28;20200;-87
2022/05/16 09:05:51;;;;;;;4.97;3.97;;;;;;;26.78;34.73;97406.75;5110579;28;20259;-90
2022/05/16 09:08:55;;;;;;;6.20;4.27;;;;;;;26.71;34.88;97365.84;5107548;28;20192;-89
2022/05/16 09:11:53;;;;;;;6.30;4.77;;;;;;;27.03;34.29;97429.78;5071444;28;20200;-89
2022/05/16 09:15:04;;;;;;;3.63;3.17;;;;;;;27.06;33.91;97426.78;5092147;28;20193;-89
2022/05/16 09:18:17;;;;;;;5.53;4.60;;;;;;;26.33;39.67;97428.31;5078576;28;20238;-88
2022/05/16 09:21:14;;;;;;;7.00;4.40;;;;;;;26.53;40.21;97420.91;5077196;28;20272;-92
2022/05/16 09:24:11;;;;;;;7.90;4.57;;;;;;;26.08;40.78;97399.09;5072939;28;20240;-90
2022/05/16 09:26:51;;;;;;;6.47;4.37;;;;;;;26.43;39.27;97421.06;5078242;28;20205;-93
2022/05/16 09:29:45;;;;;;;8.90;5.90;;;;;;;26.44;39.94;97392.66;5087183;28;20257;-89
2022/05/16 09:32:53;;;;;;;4.87;4.47;;;;;;;26.89;38.66;97405.63;5060656;28;20203;-89
2022/05/16 09:35:39;;;;;;;5.60;4.73;;;;;;;26.85;39.26;97386.53;5079608;28;20283;-90
2022/05/16 09:38:09;;;;;;;5.77;4.40;;;;;;;26.66;40.24;97388.59;5077697;28;20701;-91
2022/05/16 09:40:46;;;;;;;8.37;5.43;;;;;;;26.52;40.29;97398.81;5079812;28;20192;-93
2022/05/16 09:43:52;;;;;;;5.57;4.50;;;;;;;25.97;40.27;97401.97;5074775;28;20217;-92
2022/05/16 09:46:53;;;;;;;5.20;4.70;;;;;;;26.41;39.93;97382.34;5098282;28;20204;-89
2022/05/16 09:50:09;;;;;;;7.60;4.80;;;;;;;26.50;40.34;97368.13;5089122;28;20200;-90
2022/05/16 09:53:09;;;;;;;5.77;5.10;;;;;;;26.57;40.01;97385.91;5106973;28;20249;-88
2022/05/16 09:56:09;;;;;;;7.70;4.67;;;;;;;26.56;39.17;97391.38;5106901;28;20192;-92
2022/05/16 09:59:00;;;;;;;4.23;3.83;;;;;;;26.46;39.10;97370.25;5099011;28;20196;-91
2022/05/16 10:05:29;;;;;;;5.10;4.60;;;;;;;26.30;39.09;97374.66;5052562;28;20200;-86
2022/05/16 10:08:14;;;;;;;8.50;5.00;;;;;;;26.56;39.46;97372.78;5083056;28;20189;-88
2022/05/16 10:10:49;;;;;;;4.77;4.10;;;;;;;26.87;36.32;97347.31;5096009;28;20212;-86
2022/05/16 10:13:20;;;;;;;4.40;3.70;;;;;;;27.21;36.56;97337.38;5094871;28;20895;-93
2022/05/16 10:15:52;;;;;;;4.07;3.53;;;;;;;27.56;35.31;97359.34;5097115;28;20690;-91
2022/05/16 10:18:29;;;;;;;4.57;3.80;;;;;;;27.31;34.14;97276.00;5062667;28;20295;-89
2022/05/16 10:21:09;;;;;;;5.00;4.47;;;;;;;27.89;34.88;97339.66;5102639;28;20200;-87
2022/05/16 10:23:45;;;;;;;4.23;3.90;;;;;;;28.04;33.67;97360.13;5099767;28;20223;-90
2022/05/16 10:26:24;;;;;;;6.23;4.53;;;;;;;27.88;34.50;97346.00;5086758;28;20252;-88
2022/05/16 10:29:25;;;;;;;4.87;4.07;;;;;;;28.07;33.72;97350.94;5091166;28;20219;-87
2022/05/16 10:36:28;;;;;;;4.27;3.73;;;;;;;28.05;33.09;97291.69;5017646;28;20229;-88
2022/05/16 10:39:32;;;;;;;5.87;4.23;;;;;;;28.15;32.79;97340.28;5062034;28;20252;-87
2022/05/16 10:42:16;;;;;;;3.70;3.40;;;;;;;27.78;32.87;97346.16;5052701;28;20581;-89
2022/05/16 10:45:02;;;;;;;4.27;3.87;;;;;;;26.78;38.38;97335.00;5026038;28;20209;-89
2022/05/16 10:48:05;;;;;;;5.90;4.60;;;;;;;25.85;40.54;97321.81;5055968;28;20251;-89
2022/05/16 10:50:50;;;;;;;5.50;4.10;;;;;;;25.55;41.68;97323.13;5050925;28;20198;-90
2022/05/16 10:53:28;;;;;;;6.87;4.50;;;;;;;25.23;42.33;97329.97;5059722;28;20194;-90
2022/05/16 10:56:38;;;;;;;4.37;3.97;;;;;;;25.13;41.40;97330.06;5039507;28;20223;-89
2022/05/16 10:59:15;;;;;;;7.97;3.90;;;;;;;25.12;41.10;97328.41;5034058;28;20220;-88
2022/05/16 11:01:48;;;;;;;8.03;4.83;;;;;;;25.26;41.89;97305.81;5078716;28;20203;-93
2022/05/16 11:04:50;;;;;;;6.33;4.10;;;;;;;25.20;41.72;97333.78;5095289;28;20199;-87
2022/05/16 11:07:25;;;;;;;6.20;4.80;;;;;;;25.09;41.99;97330.50;5069969;28;20216;-92
2022/05/16 11:10:06;;;;;;;8.43;5.53;;;;;;;25.51;41.77;97327.06;5098317;28;20271;-91
2022/05/16 11:12:48;;;;;;;5.30;4.00;;;;;;;25.57;41.07;97318.50;5064065;28;20298;-93
2022/05/16 11:15:36;;;;;;;4.30;3.90;;;;;;;25.54;41.65;97324.09;5095413;28;20277;-86
2022/05/16 11:18:27;;;;;;;4.33;3.87;;;;;;;25.41;43.99;97325.50;5094901;28;20256;-87
2022/05/16 11:21:42;;;;;;;6.03;4.60;;;;;;;24.63;44.63;97313.81;5102040;28;20192;-87
2022/05/16 11:24:31;;;;;;;4.83;4.03;;;;;;;24.13;46.16;97318.72;5095810;28;20296;-89
2022/05/16 11:27:20;;;;;;;5.97;3.80;;;;;;;24.26;44.17;97315.72;5102989;28;20187;-94
2022/05/16 11:29:57;;;;;;;6.50;3.90;;;;;;;24.24;45.63;97289.41;5098981;28;20200;-94
2022/05/16 11:32:48;;;;;;;4.80;4.13;;;;;;;24.47;44.02;97296.91;5098507;28;20182;-91
2022/05/16 11:35:26;;;;;;;7.00;4.63;;;;;;;24.27;43.53;97274.22;5083670;28;20204;-87
2022/05/16 11:38:29;;;;;;;5.20;4.10;;;;;;;24.18;45.38;97260.03;5078693;28;20228;-88
2022/05/16 11:41:23;;;;;;;4.83;4.20;;;;;;;24.07;46.19;97271.66;5096388;28;20573;-87
2022/05/16 11:44:20;;;;;;;4.83;4.23;;;;;;;23.93;46.41;97282.72;5101254;28;20196;-89
2022/05/16 11:47:26;;;;;;;5.27;4.63;;;;;;;24.04;46.59;97298.44;5082624;28;20725;-89
2022/05/16 11:50:30;;;;;;;6.63;4.63;;;;;;;23.91;45.92;97281.19;5097174;28;20608;-87
2022/05/16 11:53:19;;;;;;;6.90;5.30;;;;;;;24.29;46.09;97310.16;5094189;28;20182;-88
2022/05/16 12:01:36;;;;;;;7.53;5.17;;;;;;;24.61;44.86;97294.59;5093953;28;20194;-90
2022/05/16 12:04:21;;;;;;;8.93;5.70;;;;;;;24.51;49.42;97304.44;5090426;28;20199;-88
2022/05/16 12:06:58;;;;;;;9.20;7.63;;;;;;;24.34;51.94;97325.59;5099755;28;20184;-88
2022/05/16 12:09:31;;;;;;;14.77;8.27;;;;;;;23.98;53.49;97317.50;5061641;28;20238;-88
2022/05/16 12:12:04;;;;;;;13.93;8.13;;;;;;;23.78;54.53;97330.97;5093414;28;20227;-90
2022/05/16 12:14:39;;;;;;;10.30;8.93;;;;;;;23.84;55.43;97325.09;5087515;28;20213;-89
2022/05/16 12:17:21;;;;;;;12.93;9.10;;;;;;;23.94;57.45;97329.38;5103154;28;20231;-87
2022/05/16 12:19:51;;;;;;;15.83;9.23;;;;;;;23.95;57.99;97317.78;5104178;28;20212;-91
2022/05/16 12:22:30;;;;;;;13.77;8.87;;;;;;;23.93;56.80;97325.03;5105355;28;20196;-88
2022/05/16 12:25:11;;;;;;;12.70;9.17;;;;;;;24.38;54.90;97330.41;5114699;28;20225;-87
2022/05/16 12:27:44;;;;;;;8.33;7.50;;;;;;;24.37;53.46;97328.78;5110139;28;20197;-88
2022/05/16 12:30:22;;;;;;;9.43;7.43;;;;;;;24.64;51.74;97327.91;5095144;28;20387;-90
2022/05/16 12:32:55;;;;;;;10.00;7.30;;;;;;;23.92;51.17;97225.50;5094301;28;20700;-87
2022/05/16 12:35:35;;;;;;;6.63;6.03;;;;;;;24.51;49.77;97322.97;5092908;28;20219;-87
2022/05/16 12:38:04;;;;;;;6.97;5.77;;;;;;;24.49;48.43;97285.22;5093671;28;20557;-88
2022/05/16 12:40:56;;;;;;;7.83;5.83;;;;;;;24.92;48.40;97313.63;5092095;28;20191;-87
2022/05/16 12:43:48;;;;;;;6.30;5.17;;;;;;;25.31;47.31;97314.09;5093478;28;20212;-85
2022/05/16 12:46:38;;;;;;;5.10;4.50;;;;;;;25.04;45.30;97307.94;5096221;28;20187;-86
2022/05/16 12:49:34;;;;;;;5.27;4.77;;;;;;;25.24;44.77;97289.22;5095580;28;20202;-87
2022/05/16 12:52:26;;;;;;;5.33;4.80;;;;;;;25.04;46.93;97313.25;5054961;28;20204;-86
2022/05/16 12:55:23;;;;;;;6.90;5.60;;;;;;;24.63;46.70;97267.94;5091063;28;20579;-85
2022/05/16 12:58:00;;;;;;;5.97;5.27;;;;;;;24.05;48.77;97247.16;5087000;28;20281;-88